createdAt,value
2023-05-15T00:00:02.817Z,1007.34
2023-05-15T00:01:02.775Z,1007.30
2023-05-15T00:02:02.844Z,1007.25
2023-05-15T00:03:02.804Z,1007.26
2023-05-15T00:04:02.845Z,1007.27
2023-05-15T00:05:02.779Z,1007.25
2023-05-15T00:06:02.751Z,1007.25
2023-05-15T00:07:02.696Z,1007.18
2023-05-15T00:08:02.684Z,1007.21
2023-05-15T00:09:02.683Z,1007.22
2023-05-15T00:10:02.669Z,1007.24
2023-05-15T00:11:02.662Z,1007.21
2023-05-15T00:12:02.648Z,1007.18
2023-05-15T00:13:02.620Z,1007.18
2023-05-15T00:14:02.648Z,1007.15
2023-05-15T00:15:02.615Z,1007.13
2023-05-15T00:16:02.750Z,1007.15
2023-05-15T00:17:02.612Z,1007.10
2023-05-15T00:18:02.705Z,1007.20
2023-05-15T00:19:02.644Z,1007.15
2023-05-15T00:20:02.770Z,1007.13
2023-05-15T00:21:02.548Z,1007.10
2023-05-15T00:22:02.568Z,1007.14
2023-05-15T00:23:02.569Z,1007.14
2023-05-15T00:24:02.783Z,1007.12
2023-05-15T00:25:02.509Z,1007.17
2023-05-15T00:26:02.612Z,1007.18
2023-05-15T00:27:02.472Z,1007.16
2023-05-15T00:28:02.499Z,1007.14
2023-05-15T00:29:02.454Z,1007.12
2023-05-15T00:30:02.493Z,1007.12
2023-05-15T00:31:02.554Z,1007.07
2023-05-15T00:32:02.442Z,1007.06
2023-05-15T00:33:02.452Z,1007.03
2023-05-15T00:34:02.437Z,1007.04
2023-05-15T00:35:02.412Z,1007.08
2023-05-15T00:36:02.477Z,1007.05
2023-05-15T00:37:02.393Z,1007.05
2023-05-15T00:38:03.413Z,1007.01
2023-05-15T00:39:02.420Z,1007.02
2023-05-15T00:40:02.397Z,1007.04
2023-05-15T00:41:02.339Z,1007.02
2023-05-15T00:42:02.432Z,1007.01
2023-05-15T00:43:02.310Z,1007.02
2023-05-15T00:44:02.392Z,1007.00
2023-05-15T00:45:02.299Z,1006.98
2023-05-15T00:46:02.369Z,1007.01
2023-05-15T00:47:02.317Z,1007.01
2023-05-15T00:48:02.331Z,1007.00
2023-05-15T00:49:02.250Z,1007.00
2023-05-15T00:50:02.287Z,1007.03
2023-05-15T00:51:02.219Z,1007.01
2023-05-15T00:52:02.236Z,1007.04
2023-05-15T00:53:02.212Z,1007.06
2023-05-15T00:54:02.298Z,1007.04
2023-05-15T00:55:02.178Z,1007.05
2023-05-15T00:56:02.294Z,1007.05
2023-05-15T00:57:02.158Z,1007.05
2023-05-15T00:58:02.225Z,1007.04
2023-05-15T00:59:02.150Z,1007.06
2023-05-15T01:00:02.121Z,1007.06
2023-05-15T01:01:02.131Z,1007.06
2023-05-15T01:02:02.121Z,1007.07
2023-05-15T01:03:02.250Z,1007.06
2023-05-15T01:04:02.154Z,1007.06
2023-05-15T01:05:02.083Z,1007.04
2023-05-15T01:06:02.076Z,1007.02
2023-05-15T01:07:02.037Z,1007.06
2023-05-15T01:08:02.052Z,1007.07
2023-05-15T01:09:02.025Z,1007.12
2023-05-15T01:10:02.014Z,1007.11
2023-05-15T01:11:02.005Z,1007.11
2023-05-15T01:12:01.995Z,1007.16
2023-05-15T01:13:01.970Z,1007.18
2023-05-15T01:14:01.968Z,1007.14
2023-05-15T01:15:01.958Z,1007.16
2023-05-15T01:16:01.968Z,1007.15
2023-05-15T01:17:01.940Z,1007.13
2023-05-15T01:18:01.988Z,1007.18
2023-05-15T01:19:02.014Z,1007.13
2023-05-15T01:20:01.950Z,1007.12
2023-05-15T01:21:01.900Z,1007.14
2023-05-15T01:22:01.926Z,1007.15
2023-05-15T01:23:01.859Z,1007.13
2023-05-15T01:24:01.897Z,1007.14
2023-05-15T01:25:01.844Z,1007.11
2023-05-15T01:26:01.826Z,1007.15
2023-05-15T01:27:01.872Z,1007.09
2023-05-15T01:28:01.825Z,1007.11
2023-05-15T01:29:01.805Z,1007.12
2023-05-15T01:30:01.832Z,1007.14
2023-05-15T01:31:01.795Z,1007.15
2023-05-15T01:32:01.869Z,1007.18
2023-05-15T01:33:01.838Z,1007.18
2023-05-15T01:34:01.801Z,1007.18
2023-05-15T01:35:01.727Z,1007.24
2023-05-15T01:36:01.758Z,1007.20
2023-05-15T01:37:01.721Z,1007.21
2023-05-15T01:38:01.737Z,1007.24
2023-05-15T01:39:01.673Z,1007.20
2023-05-15T01:40:01.677Z,1007.21
2023-05-15T01:41:01.672Z,1007.17
2023-05-15T01:42:01.667Z,1007.18
2023-05-15T01:43:01.635Z,1007.16
2023-05-15T01:44:01.673Z,1007.16
2023-05-15T01:45:01.643Z,1007.13
2023-05-15T01:46:01.697Z,1007.14
2023-05-15T01:47:01.611Z,1007.15
2023-05-15T01:48:01.681Z,1007.14
2023-05-15T01:49:01.586Z,1007.15
2023-05-15T01:50:01.610Z,1007.15
2023-05-15T01:51:01.551Z,1007.14
2023-05-15T01:52:01.566Z,1007.15
2023-05-15T01:53:01.522Z,1007.11
2023-05-15T01:54:01.525Z,1007.11
2023-05-15T01:55:01.514Z,1007.11
2023-05-15T01:56:01.561Z,1007.15
2023-05-15T01:57:01.491Z,1007.11
2023-05-15T01:58:01.474Z,1007.13
2023-05-15T01:59:01.470Z,1007.08
2023-05-15T02:00:01.464Z,1007.09
2023-05-15T02:01:01.445Z,1007.06
2023-05-15T02:02:01.528Z,1007.07
2023-05-15T02:03:01.466Z,1007.08
2023-05-15T02:04:01.562Z,1007.05
2023-05-15T02:05:01.411Z,1007.05
2023-05-15T02:06:01.384Z,1007.11
2023-05-15T02:07:01.364Z,1007.11
2023-05-15T02:08:01.371Z,1007.14
2023-05-15T02:09:01.365Z,1007.11
2023-05-15T02:10:01.361Z,1007.14
2023-05-15T02:11:01.444Z,1007.15
2023-05-15T02:12:01.346Z,1007.16
2023-05-15T02:13:01.334Z,1007.13
2023-05-15T02:14:01.308Z,1007.13
2023-05-15T02:15:01.305Z,1007.15
2023-05-15T02:16:01.308Z,1007.16
2023-05-15T02:17:01.269Z,1007.11
2023-05-15T02:18:01.286Z,1007.13
2023-05-15T02:19:01.305Z,1007.14
2023-05-15T02:20:01.228Z,1007.13
2023-05-15T02:21:01.235Z,1007.09
2023-05-15T02:22:01.218Z,1007.10
2023-05-15T02:23:01.205Z,1007.06
2023-05-15T02:24:01.199Z,1007.06
2023-05-15T02:25:01.179Z,1007.09
2023-05-15T02:26:01.166Z,1007.05
2023-05-15T02:27:01.148Z,1007.07
2023-05-15T02:28:01.156Z,1007.05
2023-05-15T02:29:01.144Z,1007.06
2023-05-15T02:30:01.121Z,1007.04
2023-05-15T02:31:01.097Z,1007.05
2023-05-15T02:32:01.159Z,1007.00
2023-05-15T02:33:01.156Z,1007.03
2023-05-15T02:34:01.090Z,1007.03
2023-05-15T02:35:01.085Z,1007.06
2023-05-15T02:36:01.052Z,1007.02
2023-05-15T02:37:01.049Z,1007.02
2023-05-15T02:38:01.048Z,1007.03
2023-05-15T02:39:01.034Z,1006.98
2023-05-15T02:40:01.014Z,1006.97
2023-05-15T02:41:01.011Z,1007.00
2023-05-15T02:42:02.775Z,1007.04
2023-05-15T02:43:01.004Z,1006.99
2023-05-15T02:44:00.980Z,1007.03
2023-05-15T02:45:00.954Z,1007.02
2023-05-15T02:46:00.980Z,1007.00
2023-05-15T02:47:00.932Z,1007.01
2023-05-15T02:48:01.007Z,1006.98
2023-05-15T02:49:00.907Z,1007.03
2023-05-15T02:50:00.921Z,1007.03
2023-05-15T02:51:00.890Z,1007.02
2023-05-15T02:52:00.888Z,1007.05
2023-05-15T02:53:00.884Z,1007.05
2023-05-15T02:54:00.877Z,1007.01
2023-05-15T02:55:00.843Z,1007.05
2023-05-15T02:56:00.859Z,1007.11
2023-05-15T02:57:00.815Z,1007.06
2023-05-15T02:58:00.818Z,1007.08
2023-05-15T02:59:00.801Z,1007.14
2023-05-15T03:00:00.808Z,1007.10
2023-05-15T03:01:00.863Z,1007.14
2023-05-15T03:02:00.783Z,1007.13
2023-05-15T03:03:00.804Z,1007.12
2023-05-15T03:04:00.783Z,1007.13
2023-05-15T03:05:00.765Z,1007.11
2023-05-15T03:06:00.768Z,1007.10
2023-05-15T03:07:00.711Z,1007.12
2023-05-15T03:08:00.704Z,1007.13
2023-05-15T03:09:00.693Z,1007.11
2023-05-15T03:10:00.719Z,1007.10
2023-05-15T03:11:00.680Z,1007.09
2023-05-15T03:12:00.664Z,1007.10
2023-05-15T03:13:00.647Z,1007.13
2023-05-15T03:14:00.676Z,1007.12
2023-05-15T03:15:00.641Z,1007.16
2023-05-15T03:16:00.618Z,1007.16
2023-05-15T03:17:00.623Z,1007.13
2023-05-15T03:18:00.654Z,1007.07
2023-05-15T03:19:00.633Z,1007.10
2023-05-15T03:20:00.581Z,1007.09
2023-05-15T03:21:00.556Z,1007.13
2023-05-15T03:22:00.553Z,1007.14
2023-05-15T03:23:00.538Z,1007.13
2023-05-15T03:24:00.581Z,1007.12
2023-05-15T03:25:00.509Z,1007.19
2023-05-15T03:26:00.529Z,1007.17
2023-05-15T03:27:00.498Z,1007.18
2023-05-15T03:28:00.505Z,1007.20
2023-05-15T03:29:00.579Z,1007.14
2023-05-15T03:30:00.475Z,1007.16
2023-05-15T03:31:00.480Z,1007.19
2023-05-15T03:32:00.511Z,1007.19
2023-05-15T03:33:00.478Z,1007.20
2023-05-15T03:34:00.412Z,1007.19
2023-05-15T03:35:00.398Z,1007.15
2023-05-15T03:36:00.391Z,1007.15
2023-05-15T03:37:00.382Z,1007.16
2023-05-15T03:38:00.381Z,1007.17
2023-05-15T03:39:00.373Z,1007.18
2023-05-15T03:40:00.342Z,1007.17
2023-05-15T03:41:00.338Z,1007.16
2023-05-15T03:42:00.415Z,1007.17
2023-05-15T03:43:00.325Z,1007.13
2023-05-15T03:44:00.305Z,1007.15
2023-05-15T03:45:00.311Z,1007.13
2023-05-15T03:46:00.290Z,1007.15
2023-05-15T03:47:00.382Z,1007.15
2023-05-15T03:48:00.265Z,1007.15
2023-05-15T03:49:00.262Z,1007.13
2023-05-15T03:50:00.297Z,1007.11
2023-05-15T03:51:00.213Z,1007.15
2023-05-15T03:52:00.218Z,1007.17
2023-05-15T03:53:00.259Z,1007.18
2023-05-15T03:54:00.188Z,1007.15
2023-05-15T03:55:00.242Z,1007.15
2023-05-15T03:56:00.164Z,1007.15
2023-05-15T03:57:00.169Z,1007.13
2023-05-15T03:58:00.133Z,1007.12
2023-05-15T03:59:00.158Z,1007.16
2023-05-15T04:00:00.807Z,1007.22
2023-05-15T04:01:00.137Z,1007.22
2023-05-15T04:02:05.111Z,1007.25
2023-05-15T04:03:01.216Z,1007.25
2023-05-15T04:04:00.115Z,1007.28
2023-05-15T04:05:00.206Z,1007.28
2023-05-15T04:06:00.109Z,1007.25
2023-05-15T04:07:00.049Z,1007.26
2023-05-15T04:08:00.041Z,1007.22
2023-05-15T04:09:00.013Z,1007.27
2023-05-15T04:10:00.021Z,1007.30
2023-05-15T04:11:00.029Z,1007.30
2023-05-15T04:11:59.982Z,1007.24
2023-05-15T04:12:59.976Z,1007.26
2023-05-15T04:13:59.967Z,1007.19
2023-05-15T04:14:59.963Z,1007.22
2023-05-15T04:15:59.999Z,1007.20
2023-05-15T04:16:59.934Z,1007.18
2023-05-15T04:17:59.982Z,1007.23
2023-05-15T04:18:59.930Z,1007.18
2023-05-15T04:19:59.910Z,1007.18
2023-05-15T04:20:59.894Z,1007.18
2023-05-15T04:21:59.887Z,1007.16
2023-05-15T04:22:59.869Z,1007.15
2023-05-15T04:23:59.850Z,1007.15
2023-05-15T04:24:59.865Z,1007.16
2023-05-15T04:25:59.843Z,1007.17
2023-05-15T04:26:59.893Z,1007.17
2023-05-15T04:27:59.814Z,1007.14
2023-05-15T04:29:03.962Z,1007.18
2023-05-15T04:29:59.809Z,1007.18
2023-05-15T04:30:59.801Z,1007.22
2023-05-15T04:31:59.822Z,1007.22
2023-05-15T04:32:59.784Z,1007.20
2023-05-15T04:33:59.812Z,1007.20
2023-05-15T04:34:59.732Z,1007.19
2023-05-15T04:35:59.718Z,1007.22
2023-05-15T04:36:59.717Z,1007.17
2023-05-15T04:37:59.721Z,1007.18
2023-05-15T04:38:59.712Z,1007.19
2023-05-15T04:39:59.670Z,1007.18
2023-05-15T04:40:59.667Z,1007.17
2023-05-15T04:41:59.674Z,1007.18
2023-05-15T04:42:59.646Z,1007.21
2023-05-15T04:43:59.644Z,1007.26
2023-05-15T04:44:59.621Z,1007.19
2023-05-15T04:46:01.547Z,1007.14
2023-05-15T04:47:02.101Z,1007.23
2023-05-15T04:48:00.724Z,1007.21
2023-05-15T04:49:03.317Z,1007.24
2023-05-15T04:49:59.984Z,1007.21
2023-05-15T04:51:04.811Z,1007.27
2023-05-15T04:51:59.743Z,1007.29
2023-05-15T04:53:01.324Z,1007.28
2023-05-15T04:53:59.551Z,1007.29
2023-05-15T04:54:59.802Z,1007.29
2023-05-15T04:55:59.502Z,1007.26
2023-05-15T04:56:59.497Z,1007.30
2023-05-15T04:57:59.489Z,1007.27
2023-05-15T04:58:59.506Z,1007.24
2023-05-15T04:59:59.452Z,1007.26
2023-05-15T05:01:01.405Z,1007.26
2023-05-15T05:01:59.492Z,1007.24
2023-05-15T05:02:59.742Z,1007.24
2023-05-15T05:03:59.490Z,1007.22
2023-05-15T05:04:59.419Z,1007.25
2023-05-15T05:05:59.385Z,1007.25
2023-05-15T05:06:59.379Z,1007.28
2023-05-15T05:07:59.379Z,1007.28
2023-05-15T05:08:59.380Z,1007.30
2023-05-15T05:09:59.345Z,1007.28
2023-05-15T05:10:59.355Z,1007.31
2023-05-15T05:11:59.340Z,1007.30
2023-05-15T05:12:59.315Z,1007.29
2023-05-15T05:13:59.314Z,1007.33
2023-05-15T05:14:59.295Z,1007.31
2023-05-15T05:15:59.341Z,1007.35
2023-05-15T05:16:59.317Z,1007.37
2023-05-15T05:17:59.321Z,1007.34
2023-05-15T05:18:59.322Z,1007.33
2023-05-15T05:19:59.245Z,1007.33
2023-05-15T05:20:59.236Z,1007.38
2023-05-15T05:21:59.227Z,1007.35
2023-05-15T05:22:59.202Z,1007.35
2023-05-15T05:23:59.206Z,1007.38
2023-05-15T05:24:59.177Z,1007.39
2023-05-15T05:25:59.186Z,1007.38
2023-05-15T05:26:59.174Z,1007.39
2023-05-15T05:27:59.154Z,1007.38
2023-05-15T05:28:59.132Z,1007.37
2023-05-15T05:29:59.133Z,1007.34
2023-05-15T05:30:59.179Z,1007.34
2023-05-15T05:31:59.343Z,1007.35
2023-05-15T05:32:59.181Z,1007.37
2023-05-15T05:33:59.085Z,1007.38
2023-05-15T05:34:59.122Z,1007.40
2023-05-15T05:35:59.072Z,1007.39
2023-05-15T05:36:59.056Z,1007.42
2023-05-15T05:37:59.041Z,1007.43
2023-05-15T05:38:59.050Z,1007.47
2023-05-15T05:39:59.042Z,1007.48
2023-05-15T05:40:59.011Z,1007.45
2023-05-15T05:41:59.006Z,1007.46
2023-05-15T05:42:58.978Z,1007.46
2023-05-15T05:43:58.997Z,1007.43
2023-05-15T05:44:58.991Z,1007.44
2023-05-15T05:45:58.955Z,1007.42
2023-05-15T05:46:58.978Z,1007.45
2023-05-15T05:47:59.018Z,1007.48
2023-05-15T05:48:58.915Z,1007.46
2023-05-15T05:49:58.913Z,1007.46
2023-05-15T05:50:58.950Z,1007.46
2023-05-15T05:51:58.893Z,1007.42
2023-05-15T05:52:58.871Z,1007.47
2023-05-15T05:53:58.885Z,1007.45
2023-05-15T05:54:58.847Z,1007.46
2023-05-15T05:55:58.848Z,1007.50
2023-05-15T05:56:58.822Z,1007.46
2023-05-15T05:57:58.827Z,1007.48
2023-05-15T05:58:58.812Z,1007.45
2023-05-15T05:59:58.792Z,1007.48
2023-05-15T06:00:58.777Z,1007.46
2023-05-15T06:01:58.845Z,1007.48
2023-05-15T06:02:58.944Z,1007.49
2023-05-15T06:03:58.875Z,1007.49
2023-05-15T06:04:58.740Z,1007.45
2023-05-15T06:05:58.730Z,1007.49
2023-05-15T06:06:58.775Z,1007.47
2023-05-15T06:07:58.741Z,1007.50
2023-05-15T06:08:58.699Z,1007.45
2023-05-15T06:09:58.685Z,1007.47
2023-05-15T06:10:58.680Z,1007.46
2023-05-15T06:11:58.662Z,1007.43
2023-05-15T06:12:58.651Z,1007.44
2023-05-15T06:13:58.644Z,1007.43
2023-05-15T06:14:58.653Z,1007.50
2023-05-15T06:15:58.626Z,1007.46
2023-05-15T06:16:58.775Z,1007.47
2023-05-15T06:17:58.646Z,1007.47
2023-05-15T06:18:58.662Z,1007.47
2023-05-15T06:19:58.667Z,1007.47
2023-05-15T06:20:58.619Z,1007.47
2023-05-15T06:21:58.593Z,1007.51
2023-05-15T06:22:58.538Z,1007.51
2023-05-15T06:23:58.535Z,1007.50
2023-05-15T06:24:58.516Z,1007.48
2023-05-15T06:25:58.512Z,1007.54
2023-05-15T06:26:58.504Z,1007.52
2023-05-15T06:27:58.528Z,1007.50
2023-05-15T06:28:58.476Z,1007.51
2023-05-15T06:29:58.495Z,1007.50
2023-05-15T06:30:58.492Z,1007.50
2023-05-15T06:31:58.451Z,1007.51
2023-05-15T06:32:58.459Z,1007.48
2023-05-15T06:33:58.419Z,1007.51
2023-05-15T06:34:58.402Z,1007.52
2023-05-15T06:35:58.426Z,1007.52
2023-05-15T06:36:58.391Z,1007.50
2023-05-15T06:37:58.620Z,1007.50
2023-05-15T06:38:58.383Z,1007.52
2023-05-15T06:39:58.385Z,1007.52
2023-05-15T06:40:58.364Z,1007.58
2023-05-15T06:42:02.214Z,1007.56
2023-05-15T06:42:58.321Z,1007.61
2023-05-15T06:43:58.317Z,1007.65
2023-05-15T06:44:58.351Z,1007.62
2023-05-15T06:45:58.319Z,1007.64
2023-05-15T06:46:58.377Z,1007.66
2023-05-15T06:48:01.474Z,1007.67
2023-05-15T06:48:58.256Z,1007.66
2023-05-15T06:49:58.259Z,1007.69
2023-05-15T06:50:58.235Z,1007.71
2023-05-15T06:51:58.228Z,1007.72
2023-05-15T06:52:58.228Z,1007.76
2023-05-15T06:53:58.227Z,1007.71
2023-05-15T06:54:58.201Z,1007.71
2023-05-15T06:55:58.181Z,1007.71
2023-05-15T06:56:58.178Z,1007.68
2023-05-15T06:57:58.158Z,1007.72
2023-05-15T06:58:58.161Z,1007.75
2023-05-15T06:59:58.137Z,1007.72
2023-05-15T07:00:59.397Z,1007.71
2023-05-15T07:01:58.147Z,1007.72
2023-05-15T07:02:58.137Z,1007.72
2023-05-15T07:03:58.103Z,1007.71
2023-05-15T07:04:58.104Z,1007.72
2023-05-15T07:05:58.064Z,1007.76
2023-05-15T07:06:58.086Z,1007.75
2023-05-15T07:07:58.074Z,1007.79
2023-05-15T07:08:58.072Z,1007.77
2023-05-15T07:09:58.020Z,1007.78
2023-05-15T07:10:58.021Z,1007.75
2023-05-15T07:11:58.003Z,1007.72
2023-05-15T07:12:58.007Z,1007.75
2023-05-15T07:13:58.005Z,1007.75
2023-05-15T07:14:57.966Z,1007.73
2023-05-15T07:15:57.957Z,1007.73
2023-05-15T07:16:57.972Z,1007.75
2023-05-15T07:17:58.060Z,1007.75
2023-05-15T07:18:57.970Z,1007.75
2023-05-15T07:19:57.920Z,1007.74
2023-05-15T07:20:57.907Z,1007.72
2023-05-15T07:21:57.903Z,1007.72
2023-05-15T07:22:57.892Z,1007.72
2023-05-15T07:23:57.880Z,1007.73
2023-05-15T07:24:57.858Z,1007.72
2023-05-15T07:25:57.845Z,1007.73
2023-05-15T07:26:59.101Z,1007.77
2023-05-15T07:27:57.843Z,1007.77
2023-05-15T07:28:57.815Z,1007.75
2023-05-15T07:29:57.809Z,1007.75
2023-05-15T07:30:57.792Z,1007.77
2023-05-15T07:31:57.971Z,1007.78
2023-05-15T07:32:57.828Z,1007.82
2023-05-15T07:33:57.764Z,1007.83
2023-05-15T07:34:57.759Z,1007.78
2023-05-15T07:35:57.747Z,1007.83
2023-05-15T07:36:57.735Z,1007.80
2023-05-15T07:37:57.730Z,1007.79
2023-05-15T07:38:57.705Z,1007.82
2023-05-15T07:39:57.730Z,1007.81
2023-05-15T07:40:57.697Z,1007.86
2023-05-15T07:41:57.674Z,1007.87
2023-05-15T07:42:57.658Z,1007.89
2023-05-15T07:43:57.645Z,1007.86
2023-05-15T07:44:57.712Z,1007.89
2023-05-15T07:45:57.658Z,1007.90
2023-05-15T07:46:57.618Z,1007.96
2023-05-15T07:47:57.666Z,1007.91
2023-05-15T07:48:57.583Z,1007.92
2023-05-15T07:49:57.594Z,1007.88
2023-05-15T07:50:57.593Z,1007.91
2023-05-15T07:51:57.568Z,1007.89
2023-05-15T07:52:57.550Z,1007.90
2023-05-15T07:53:57.540Z,1007.93
2023-05-15T07:54:57.559Z,1007.94
2023-05-15T07:55:57.529Z,1007.93
2023-05-15T07:56:57.554Z,1007.91
2023-05-15T07:57:57.488Z,1007.91
2023-05-15T07:58:57.511Z,1007.90
2023-05-15T07:59:57.481Z,1007.95
2023-05-15T08:00:57.465Z,1007.90
2023-05-15T08:01:57.510Z,1007.89
2023-05-15T08:02:57.560Z,1007.92
2023-05-15T08:03:57.505Z,1007.90
2023-05-15T08:04:57.444Z,1007.89
2023-05-15T08:05:57.402Z,1007.88
2023-05-15T08:06:57.404Z,1007.90
2023-05-15T08:07:57.378Z,1007.92
2023-05-15T08:08:57.395Z,1007.92
2023-05-15T08:09:57.357Z,1007.90
2023-05-15T08:10:57.346Z,1007.92
2023-05-15T08:11:57.364Z,1007.93
2023-05-15T08:12:57.349Z,1007.87
2023-05-15T08:13:57.403Z,1007.86
2023-05-15T08:14:57.301Z,1007.88
2023-05-15T08:15:57.329Z,1007.88
2023-05-15T08:16:57.309Z,1007.92
2023-05-15T08:17:57.355Z,1007.90
2023-05-15T08:18:57.330Z,1007.92
2023-05-15T08:19:57.297Z,1007.88
2023-05-15T08:20:57.247Z,1007.95
2023-05-15T08:21:57.238Z,1007.90
2023-05-15T08:22:57.273Z,1007.86
2023-05-15T08:23:57.775Z,1007.85
2023-05-15T08:24:57.234Z,1007.89
2023-05-15T08:25:57.196Z,1007.93
2023-05-15T08:26:57.183Z,1007.93
2023-05-15T08:27:57.166Z,1007.90
2023-05-15T08:28:57.177Z,1007.90
2023-05-15T08:29:57.160Z,1007.89
2023-05-15T08:30:57.170Z,1007.90
2023-05-15T08:31:57.150Z,1007.92
2023-05-15T08:32:57.186Z,1007.90
2023-05-15T08:33:57.092Z,1007.90
2023-05-15T08:34:57.103Z,1007.86
2023-05-15T08:35:57.075Z,1007.92
2023-05-15T08:36:57.075Z,1007.88
2023-05-15T08:37:57.052Z,1007.95
2023-05-15T08:38:57.047Z,1007.92
2023-05-15T08:39:57.039Z,1007.95
2023-05-15T08:40:57.022Z,1007.92
2023-05-15T08:41:57.020Z,1007.90
2023-05-15T08:42:56.997Z,1007.86
2023-05-15T08:43:56.984Z,1007.91
2023-05-15T08:44:56.977Z,1007.84
2023-05-15T08:45:56.977Z,1007.84
2023-05-15T08:46:57.108Z,1007.85
2023-05-15T08:47:57.136Z,1007.85
2023-05-15T08:48:56.954Z,1007.83
2023-05-15T08:49:56.946Z,1007.81
2023-05-15T08:50:56.935Z,1007.84
2023-05-15T08:51:56.901Z,1007.85
2023-05-15T08:52:56.885Z,1007.81
2023-05-15T08:53:56.866Z,1007.84
2023-05-15T08:54:56.910Z,1007.85
2023-05-15T08:55:56.860Z,1007.89
2023-05-15T08:56:56.922Z,1007.90
2023-05-15T08:57:56.848Z,1007.88
2023-05-15T08:58:56.819Z,1007.90
2023-05-15T08:59:56.807Z,1007.85
2023-05-15T09:00:56.817Z,1007.87
2023-05-15T09:01:57.730Z,1007.85
2023-05-15T09:02:56.844Z,1007.88
2023-05-15T09:03:56.897Z,1007.85
2023-05-15T09:04:56.807Z,1007.81
2023-05-15T09:05:56.763Z,1007.84
2023-05-15T09:06:56.726Z,1007.75
2023-05-15T09:07:56.739Z,1007.75
2023-05-15T09:08:56.713Z,1007.72
2023-05-15T09:09:56.749Z,1007.76
2023-05-15T09:10:56.698Z,1007.76
2023-05-15T09:11:56.694Z,1007.77
2023-05-15T09:12:56.672Z,1007.73
2023-05-15T09:13:56.665Z,1007.73
2023-05-15T09:14:56.672Z,1007.72
2023-05-15T09:15:56.625Z,1007.72
2023-05-15T09:16:56.683Z,1007.69
2023-05-15T09:17:56.695Z,1007.81
2023-05-15T09:18:56.678Z,1007.79
2023-05-15T09:19:56.600Z,1007.83
2023-05-15T09:20:56.739Z,1007.79
2023-05-15T09:21:56.564Z,1007.86
2023-05-15T09:22:56.569Z,1007.84
2023-05-15T09:23:56.622Z,1007.76
2023-05-15T09:24:56.637Z,1007.76
2023-05-15T09:25:56.603Z,1007.67
2023-05-15T09:26:56.530Z,1007.71
2023-05-15T09:27:56.562Z,1007.73
2023-05-15T09:28:56.569Z,1007.78
2023-05-15T09:29:56.511Z,1007.76
2023-05-15T09:30:56.473Z,1007.65
2023-05-15T09:31:56.510Z,1007.60
2023-05-15T09:32:56.693Z,1007.49
2023-05-15T09:33:56.467Z,1007.66
2023-05-15T09:34:56.430Z,1007.63
2023-05-15T09:35:56.411Z,1007.56
2023-05-15T09:36:56.415Z,1007.57
2023-05-15T09:37:56.405Z,1007.56
2023-05-15T09:38:56.392Z,1007.64
2023-05-15T09:39:56.368Z,1007.63
2023-05-15T09:40:56.382Z,1007.62
2023-05-15T09:41:56.369Z,1007.64
2023-05-15T09:42:56.361Z,1007.55
2023-05-15T09:43:56.343Z,1007.42
2023-05-15T09:44:56.321Z,1007.40
2023-05-15T09:45:56.426Z,1007.39
2023-05-15T09:46:56.369Z,1007.29
2023-05-15T09:47:56.435Z,1007.36
2023-05-15T09:48:56.288Z,1007.41
2023-05-15T09:49:56.264Z,1007.40
2023-05-15T09:50:56.299Z,1007.36
2023-05-15T09:51:56.284Z,1007.36
2023-05-15T09:52:56.282Z,1007.36
2023-05-15T09:53:56.226Z,1007.35
2023-05-15T09:54:56.216Z,1007.32
2023-05-15T09:55:56.214Z,1007.31
2023-05-15T09:56:56.459Z,1007.32
2023-05-15T09:57:56.174Z,1007.29
2023-05-15T09:58:56.176Z,1007.30
2023-05-15T09:59:56.156Z,1007.30
2023-05-15T10:00:56.220Z,1007.32
2023-05-15T10:01:56.161Z,1007.26
2023-05-15T10:02:56.141Z,1007.29
2023-05-15T10:03:56.111Z,1007.26
2023-05-15T10:04:56.163Z,1007.29
2023-05-15T10:05:56.132Z,1007.30
2023-05-15T10:06:56.087Z,1007.25
2023-05-15T10:07:56.077Z,1007.17
2023-05-15T10:08:56.256Z,1007.12
2023-05-15T10:09:56.065Z,1007.13
2023-05-15T10:10:56.045Z,1007.09
2023-05-15T10:11:56.039Z,1007.11
2023-05-15T10:12:56.018Z,1007.08
2023-05-15T10:13:56.013Z,1007.12
2023-05-15T10:14:56.034Z,1007.05
2023-05-15T10:15:56.134Z,1007.09
2023-05-15T10:16:55.985Z,1007.08
2023-05-15T10:17:56.024Z,1007.01
2023-05-15T10:18:56.089Z,1007.02
2023-05-15T10:19:58.737Z,1007.05
2023-05-15T10:20:55.938Z,1006.99
2023-05-15T10:21:55.920Z,1006.92
2023-05-15T10:22:55.935Z,1007.05
2023-05-15T10:23:55.931Z,1007.00
2023-05-15T10:24:55.906Z,1006.98
2023-05-15T10:25:55.885Z,1006.97
2023-05-15T10:26:55.899Z,1006.91
2023-05-15T10:27:55.909Z,1006.88
2023-05-15T10:28:55.906Z,1006.93
2023-05-15T10:29:55.877Z,1006.85
2023-05-15T10:30:55.872Z,1006.80
2023-05-15T10:31:55.896Z,1006.80
2023-05-15T10:32:55.827Z,1006.61
2023-05-15T10:33:55.815Z,1006.75
2023-05-15T10:34:55.796Z,1006.79
2023-05-15T10:35:55.786Z,1006.79
2023-05-15T10:36:55.766Z,1006.76
2023-05-15T10:37:55.781Z,1006.70
2023-05-15T10:38:55.863Z,1006.73
2023-05-15T10:39:55.746Z,1006.70
2023-05-15T10:41:05.594Z,1006.67
2023-05-15T10:41:56.809Z,1006.73
2023-05-15T10:42:55.723Z,1006.73
2023-05-15T10:43:55.707Z,1006.69
2023-05-15T10:44:55.698Z,1006.65
2023-05-15T10:45:55.693Z,1006.67
2023-05-15T10:46:55.721Z,1006.66
2023-05-15T10:47:55.707Z,1006.57
2023-05-15T10:48:55.652Z,1006.56
2023-05-15T10:49:55.627Z,1006.56
2023-05-15T10:50:55.639Z,1006.50
2023-05-15T10:51:55.626Z,1006.48
2023-05-15T10:52:55.651Z,1006.45
2023-05-15T10:53:55.600Z,1006.46
2023-05-15T10:54:55.587Z,1006.43
2023-05-15T10:55:55.630Z,1006.38
2023-05-15T10:56:55.589Z,1006.35
2023-05-15T10:57:55.582Z,1006.33
2023-05-15T10:58:55.554Z,1006.33
2023-05-15T10:59:55.548Z,1006.30
2023-05-15T11:00:55.577Z,1006.26
2023-05-15T11:01:55.521Z,1006.24
2023-05-15T11:02:55.663Z,1006.24
2023-05-15T11:03:55.517Z,1006.20
2023-05-15T11:04:55.496Z,1006.20
2023-05-15T11:05:55.483Z,1006.23
2023-05-15T11:06:55.479Z,1006.16
2023-05-15T11:07:55.450Z,1006.20
2023-05-15T11:08:55.447Z,1006.21
2023-05-15T11:09:55.434Z,1006.12
2023-05-15T11:10:55.477Z,1006.21
2023-05-15T11:11:55.699Z,1006.19
2023-05-15T11:12:55.406Z,1006.21
2023-05-15T11:13:55.400Z,1006.19
2023-05-15T11:14:55.395Z,1006.18
2023-05-15T11:15:55.383Z,1006.10
2023-05-15T11:16:55.599Z,1006.07
2023-05-15T11:17:55.386Z,1006.02
2023-05-15T11:18:55.370Z,1005.95
2023-05-15T11:19:55.339Z,1005.99
2023-05-15T11:20:55.332Z,1005.96
2023-05-15T11:21:55.321Z,1005.89
2023-05-15T11:22:55.318Z,1005.93
2023-05-15T11:23:55.289Z,1005.93
2023-05-15T11:24:55.307Z,1005.93
2023-05-15T11:25:55.286Z,1005.94
2023-05-15T11:26:56.103Z,1005.96
2023-05-15T11:27:55.252Z,1005.92
2023-05-15T11:28:55.261Z,1005.90
2023-05-15T11:29:55.246Z,1005.93
2023-05-15T11:30:55.268Z,1006.03
2023-05-15T11:31:55.317Z,1005.92
2023-05-15T11:32:55.276Z,1005.92
2023-05-15T11:33:55.180Z,1005.95
2023-05-15T11:34:55.193Z,1005.91
2023-05-15T11:35:55.171Z,1005.91
2023-05-15T11:36:55.192Z,1005.93
2023-05-15T11:37:55.185Z,1005.95
2023-05-15T11:38:55.152Z,1005.96
2023-05-15T11:39:55.134Z,1005.89
2023-05-15T11:40:55.155Z,1005.97
2023-05-15T11:41:55.117Z,1005.88
2023-05-15T11:42:55.158Z,1005.94
2023-05-15T11:43:55.090Z,1005.94
2023-05-15T11:44:55.164Z,1005.89
2023-05-15T11:45:55.069Z,1005.85
2023-05-15T11:46:55.150Z,1005.76
2023-05-15T11:47:55.093Z,1005.67
2023-05-15T11:48:55.052Z,1005.76
2023-05-15T11:49:55.036Z,1005.75
2023-05-15T11:50:55.026Z,1005.66
2023-05-15T11:51:55.009Z,1005.70
2023-05-15T11:52:55.013Z,1005.73
2023-05-15T11:53:55.022Z,1005.65
2023-05-15T11:54:54.984Z,1005.65
2023-05-15T11:55:54.964Z,1005.61
2023-05-15T11:56:54.973Z,1005.69
2023-05-15T11:57:54.953Z,1005.65
2023-05-15T11:58:54.967Z,1005.65
2023-05-15T11:59:54.930Z,1005.62
2023-05-15T12:00:54.929Z,1005.59
2023-05-15T12:01:54.918Z,1005.58
2023-05-15T12:02:54.978Z,1005.55
2023-05-15T12:03:55.356Z,1005.55
2023-05-15T12:04:54.925Z,1005.61